Terminal Aerodrome Forecast
Issued by NWS Mt. Holly, NJ

Home | Current Version | Previous Version | Text Only | Print | Product List | Glossary On
Versions: 1 2 3 4 5 6 7 8 9 10 11 12 13 14 15 16 17 18 19 20 21 22 23 24 25 26 27 28 29 30 31 32 33 34 35 36 37 38 39 40 41 42 43
902
FTUS41 KPHI 271142
TAFABE
TAF
KABE 271142Z 2712/2812 08010G18KT P6SM OVC018
      TEMPO 2712/2713 5SM -SHRA
     FM271300 08006KT P6SM VCSH OVC012
     FM272100 09008KT P6SM OVC011 PROB30 2721/2802 5SM -SHRA
     FM280200 09005KT P6SM OVC009 PROB30 2802/2804 5SM -SHRA
     FM280400 09004KT 6SM -DZ OVC008 PROB30 2804/2806 5SM -SHRA=

USA.gov is the U.S. government's official web portal to all federal, state and local government web resources and services.